createdAt,value
2022-08-02T00:01:06.113Z,3.60
2022-08-02T00:03:34.552Z,3.25
2022-08-02T00:06:04.078Z,3.53
2022-08-02T00:08:33.330Z,3.05
2022-08-02T00:11:01.710Z,3.13
2022-08-02T00:13:30.137Z,3.40
2022-08-02T00:15:58.525Z,3.55
2022-08-02T00:18:28.267Z,3.25
2022-08-02T00:20:56.590Z,4.30
2022-08-02T00:23:25.105Z,3.85
2022-08-02T00:25:54.898Z,4.25
2022-08-02T00:28:27.241Z,3.85
2022-08-02T00:30:57.533Z,3.30
2022-08-02T00:34:05.364Z,3.17
2022-08-02T00:36:16.024Z,5.15
2022-08-02T00:38:44.906Z,3.55
2022-08-02T00:41:16.364Z,3.45
2022-08-02T00:43:45.094Z,3.97
2022-08-02T00:46:14.141Z,3.88
2022-08-02T00:48:43.057Z,4.03
2022-08-02T00:51:11.828Z,3.38
2022-08-02T00:53:41.901Z,4.63
2022-08-02T00:56:10.415Z,4.28
2022-08-02T00:58:39.298Z,3.50
2022-08-02T01:01:07.751Z,4.45
2022-08-02T01:03:36.169Z,3.45
2022-08-02T01:06:12.037Z,3.60
2022-08-02T01:08:43.804Z,3.83
2022-08-02T01:11:12.968Z,4.60
2022-08-02T01:13:41.554Z,3.75
2022-08-02T01:16:17.230Z,4.85
2022-08-02T01:18:48.910Z,4.20
2022-08-02T01:21:36.345Z,3.72
2022-08-02T01:24:37.147Z,5.25
2022-08-02T01:27:20.366Z,4.18
2022-08-02T01:29:57.628Z,5.43
2022-08-02T01:32:30.612Z,4.47
2022-08-02T01:35:03.522Z,4.00
2022-08-02T01:37:38.898Z,4.05
2022-08-02T01:40:11.322Z,3.83
2022-08-02T01:42:47.230Z,4.82
2022-08-02T01:45:20.488Z,5.55
2022-08-02T01:47:50.094Z,3.47
2022-08-02T01:50:22.242Z,3.72
2022-08-02T01:52:54.335Z,4.05
2022-08-02T01:55:33.605Z,4.25
2022-08-02T01:58:17.931Z,3.78
2022-08-02T02:00:49.252Z,3.50
2022-08-02T02:03:21.683Z,4.22
2022-08-02T02:05:52.957Z,4.30
2022-08-02T02:08:27.008Z,4.65
2022-08-02T02:13:33.271Z,4.13
2022-08-02T02:16:05.740Z,5.38
2022-08-02T02:18:41.118Z,5.53
2022-08-02T02:21:09.472Z,4.72
2022-08-02T02:23:38.098Z,4.03
2022-08-02T02:26:07.190Z,5.38
2022-08-02T02:28:39.966Z,5.65
2022-08-02T02:31:13.126Z,5.72
2022-08-02T02:33:45.429Z,5.53
2022-08-02T02:36:17.655Z,6.63
2022-08-02T02:38:48.098Z,4.40
2022-08-02T02:41:19.933Z,5.32
2022-08-02T02:43:49.963Z,5.15
2022-08-02T02:46:21.664Z,4.70
2022-08-02T02:48:52.617Z,6.95
2022-08-02T02:51:22.692Z,4.53
2022-08-02T02:54:33.740Z,6.18
2022-08-02T02:56:42.041Z,5.85
2022-08-02T02:59:13.376Z,5.00
2022-08-02T03:01:57.352Z,5.25
2022-08-02T03:04:55.261Z,4.95
2022-08-02T03:07:17.502Z,5.63
2022-08-02T03:09:47.991Z,4.50
2022-08-02T03:12:30.780Z,5.88
2022-08-02T03:15:00.454Z,5.57
2022-08-02T03:17:40.192Z,5.90
2022-08-02T03:20:11.675Z,7.07
2022-08-02T03:22:40.214Z,4.70
2022-08-02T03:25:09.849Z,4.78
2022-08-02T03:27:38.615Z,6.22
2022-08-02T03:30:09.577Z,5.97
2022-08-02T03:32:41.263Z,6.38
2022-08-02T03:35:12.214Z,4.93
2022-08-02T03:37:41.899Z,5.25
2022-08-02T03:40:12.439Z,5.53
2022-08-02T03:42:41.872Z,6.05
2022-08-02T03:45:12.459Z,5.85
2022-08-02T03:47:43.574Z,5.60
2022-08-02T03:50:13.567Z,5.18
2022-08-02T03:52:43.427Z,5.78
2022-08-02T03:55:15.250Z,7.10
2022-08-02T03:57:44.041Z,6.32
2022-08-02T04:00:14.226Z,6.30
2022-08-02T04:02:43.962Z,5.55
2022-08-02T04:05:12.358Z,7.13
2022-08-02T04:08:34.299Z,5.68
2022-08-02T04:10:29.050Z,7.22
2022-08-02T04:12:58.809Z,5.35
2022-08-02T04:15:27.241Z,5.78
2022-08-02T04:18:02.856Z,7.25
2022-08-02T04:20:36.029Z,5.60
2022-08-02T04:23:07.530Z,5.18
2022-08-02T04:25:40.534Z,6.40
2022-08-02T04:28:17.177Z,7.18
2022-08-02T04:30:48.206Z,5.70
2022-08-02T04:33:18.992Z,6.78
2022-08-02T04:35:47.503Z,5.38
2022-08-02T04:38:16.583Z,5.13
2022-08-02T04:40:55.477Z,8.00
2022-08-02T04:43:24.582Z,6.40
2022-08-02T04:45:54.362Z,5.80
2022-08-02T04:48:24.608Z,5.70
2022-08-02T04:50:53.273Z,5.95
2022-08-02T04:53:21.681Z,6.65
2022-08-02T04:55:50.134Z,4.93
2022-08-02T04:58:39.277Z,5.25
2022-08-02T05:01:07.114Z,6.35
2022-08-02T05:03:37.029Z,5.93
2022-08-02T05:06:18.851Z,5.65
2022-08-02T05:08:52.694Z,6.60
2022-08-02T05:11:34.694Z,6.88
2022-08-02T05:14:06.032Z,6.95
2022-08-02T05:16:34.510Z,6.35
2022-08-02T05:19:04.393Z,7.72
2022-08-02T05:21:32.837Z,6.30
2022-08-02T05:24:01.246Z,6.55
2022-08-02T05:26:29.677Z,6.22
2022-08-02T05:28:58.143Z,6.25
2022-08-02T05:31:26.482Z,8.27
2022-08-02T05:33:54.850Z,7.93
2022-08-02T05:36:24.666Z,6.75
2022-08-02T05:39:05.209Z,7.88
2022-08-02T05:41:33.870Z,6.43
2022-08-02T05:44:02.513Z,7.03
2022-08-02T05:46:30.907Z,6.60
2022-08-02T05:48:59.662Z,6.30
2022-08-02T05:51:32.618Z,7.38
2022-08-02T05:54:07.713Z,6.30
2022-08-02T05:56:40.322Z,8.48
2022-08-02T05:59:18.809Z,7.10
2022-08-02T06:01:49.990Z,7.28
2022-08-02T06:04:38.379Z,6.95
2022-08-02T06:07:11.330Z,6.50
2022-08-02T06:09:41.485Z,7.68
2022-08-02T06:12:15.018Z,9.32
2022-08-02T06:14:44.715Z,7.20
2022-08-02T06:17:14.762Z,9.57
2022-08-02T06:19:51.805Z,9.25
2022-08-02T06:22:31.811Z,14.90
2022-08-02T06:25:05.731Z,9.82
2022-08-02T06:27:36.081Z,8.00
2022-08-02T06:30:06.309Z,9.90
2022-08-02T06:32:35.078Z,8.35
2022-08-02T06:35:05.055Z,7.75
2022-08-02T06:37:42.741Z,8.73
2022-08-02T06:40:19.947Z,10.52
2022-08-02T06:42:52.827Z,11.38
2022-08-02T06:45:21.299Z,9.60
2022-08-02T06:47:49.789Z,10.90
2022-08-02T06:50:18.360Z,9.57
2022-08-02T06:52:48.161Z,8.20
2022-08-02T06:55:16.613Z,8.73
2022-08-02T06:57:44.964Z,8.07
2022-08-02T07:00:13.996Z,8.07
2022-08-02T07:02:42.530Z,11.13
2022-08-02T07:05:12.674Z,9.82
2022-08-02T07:07:41.253Z,10.07
2022-08-02T07:10:11.284Z,8.02
2022-08-02T07:12:39.730Z,7.10
2022-08-02T07:15:10.052Z,8.60
2022-08-02T07:17:40.963Z,12.27
2022-08-02T07:20:10.728Z,10.02
2022-08-02T07:22:39.083Z,8.43
2022-08-02T07:25:08.386Z,6.72
2022-08-02T07:27:38.183Z,8.00
2022-08-02T07:30:08.067Z,7.50
2022-08-02T07:32:36.427Z,7.25
2022-08-02T07:35:06.965Z,7.43
2022-08-02T07:37:55.172Z,9.38
2022-08-02T07:40:27.407Z,10.93
2022-08-02T07:43:03.531Z,10.20
2022-08-02T07:45:35.973Z,8.60
2022-08-02T07:48:05.998Z,7.63
2022-08-02T07:50:36.876Z,7.68
2022-08-02T07:53:05.242Z,5.32
2022-08-02T07:55:40.472Z,6.80
2022-08-02T07:58:13.136Z,6.40
2022-08-02T08:00:43.585Z,5.15
2022-08-02T08:03:12.165Z,7.75
2022-08-02T08:05:40.796Z,6.18
2022-08-02T08:08:15.056Z,5.95
2022-08-02T08:10:45.867Z,6.35
2022-08-02T08:13:16.598Z,5.97
2022-08-02T08:15:51.832Z,6.35
2022-08-02T08:18:20.876Z,5.80
2022-08-02T08:20:51.884Z,5.32
2022-08-02T08:23:20.466Z,4.82
2022-08-02T08:25:49.360Z,5.50
2022-08-02T08:28:19.043Z,5.15
2022-08-02T08:30:48.403Z,7.28
2022-08-02T08:33:16.918Z,5.45
2022-08-02T08:35:45.284Z,4.88
2022-08-02T08:38:13.801Z,4.82
2022-08-02T08:40:42.590Z,4.90
2022-08-02T08:43:13.777Z,5.57
2022-08-02T08:45:44.670Z,3.95
2022-08-02T08:48:31.302Z,4.38
2022-08-02T08:51:06.593Z,4.25
2022-08-02T08:53:41.174Z,5.07
2022-08-02T08:56:15.991Z,4.38
2022-08-02T08:58:47.321Z,4.40
2022-08-02T09:01:17.645Z,5.80
2022-08-02T09:03:46.913Z,4.25
2022-08-02T09:06:15.621Z,4.85
2022-08-02T09:08:44.229Z,3.72
2022-08-02T09:11:17.102Z,5.93
2022-08-02T09:13:51.929Z,5.00
2022-08-02T09:16:33.255Z,4.90
2022-08-02T09:19:02.784Z,6.60
2022-08-02T09:21:39.998Z,6.53
2022-08-02T09:24:18.204Z,4.43
2022-08-02T09:26:51.038Z,4.68
2022-08-02T09:29:22.878Z,4.25
2022-08-02T09:32:03.767Z,4.95
2022-08-02T09:34:45.811Z,5.15
2022-08-02T09:37:29.704Z,6.30
2022-08-02T09:40:00.521Z,5.95
2022-08-02T09:42:30.734Z,5.78
2022-08-02T09:45:02.138Z,6.90
2022-08-02T09:47:33.369Z,5.50
2022-08-02T09:50:06.397Z,5.63
2022-08-02T09:52:43.119Z,4.55
2022-08-02T09:55:12.769Z,5.07
2022-08-02T09:57:41.165Z,4.90
2022-08-02T10:00:14.859Z,4.28
2022-08-02T10:03:16.008Z,5.00
2022-08-02T10:05:55.927Z,4.77
2022-08-02T10:08:31.781Z,5.03
2022-08-02T10:11:03.426Z,7.15
2022-08-02T10:13:36.718Z,4.32
2022-08-02T10:16:07.044Z,4.35
2022-08-02T10:18:40.213Z,4.35
2022-08-02T10:21:15.514Z,5.35
2022-08-02T10:23:46.639Z,6.72
2022-08-02T10:26:17.992Z,4.47
2022-08-02T10:28:49.431Z,4.25
2022-08-02T10:31:24.956Z,4.97
2022-08-02T10:33:56.999Z,4.63
2022-08-02T10:36:27.530Z,3.83
2022-08-02T10:38:58.560Z,4.10
2022-08-02T10:41:42.664Z,3.92
2022-08-02T10:44:24.353Z,4.30
2022-08-02T10:46:54.399Z,4.75
2022-08-02T10:49:40.604Z,4.63
2022-08-02T10:52:11.060Z,4.25
2022-08-02T10:54:41.672Z,4.70
2022-08-02T10:57:21.040Z,3.80
2022-08-02T10:59:50.452Z,3.50
2022-08-02T11:02:36.670Z,3.92
2022-08-02T11:05:12.258Z,4.05
2022-08-02T11:07:47.409Z,4.53
2022-08-02T11:10:45.088Z,4.35
2022-08-02T11:13:15.038Z,3.70
2022-08-02T11:15:56.898Z,4.90
2022-08-02T11:19:00.271Z,3.60
2022-08-02T11:21:31.406Z,3.63
2022-08-02T11:24:28.685Z,3.42
2022-08-02T11:26:58.914Z,3.53
2022-08-02T11:29:38.988Z,3.40
2022-08-02T11:32:08.813Z,4.32
2022-08-02T11:34:39.991Z,4.00
2022-08-02T11:37:10.223Z,3.47
2022-08-02T11:39:38.597Z,4.80
2022-08-02T11:42:07.059Z,4.03
2022-08-02T11:44:42.236Z,4.28
2022-08-02T11:47:10.688Z,3.60
2022-08-02T11:49:39.268Z,4.00
2022-08-02T11:52:11.080Z,4.82
2022-08-02T11:54:42.199Z,7.60
2022-08-02T11:57:17.038Z,3.85
2022-08-02T11:59:51.482Z,4.68
2022-08-02T12:02:21.233Z,3.63
2022-08-02T12:04:58.410Z,3.67
2022-08-02T12:07:35.007Z,4.45
2022-08-02T12:10:07.687Z,3.40
2022-08-02T12:12:48.907Z,4.05
2022-08-02T12:15:30.133Z,3.70
2022-08-02T12:18:16.309Z,3.55
2022-08-02T12:20:45.448Z,4.03
2022-08-02T12:23:15.885Z,3.72
2022-08-02T12:25:44.276Z,5.13
2022-08-02T12:28:18.263Z,3.85
2022-08-02T12:33:23.964Z,4.15
2022-08-02T12:35:52.826Z,3.63
2022-08-02T12:38:23.329Z,3.60
2022-08-02T12:40:51.763Z,5.05
2022-08-02T12:43:23.698Z,3.95
2022-08-02T12:45:54.031Z,3.65
2022-08-02T12:48:37.574Z,3.95
2022-08-02T12:51:23.713Z,5.10
2022-08-02T12:53:59.806Z,6.45
2022-08-02T12:56:31.123Z,4.25
2022-08-02T12:58:59.984Z,5.95
2022-08-02T13:01:29.788Z,3.72
2022-08-02T13:04:10.698Z,5.22
2022-08-02T13:06:45.067Z,6.22
2022-08-02T13:09:17.938Z,5.00
2022-08-02T13:11:46.730Z,3.72
2022-08-02T13:14:16.052Z,3.65
2022-08-02T13:16:46.634Z,4.95
2022-08-02T13:19:16.188Z,5.72
2022-08-02T13:22:01.263Z,3.65
2022-08-02T13:24:41.348Z,3.00
2022-08-02T13:27:22.190Z,4.22
2022-08-02T13:29:50.914Z,3.53
2022-08-02T13:32:19.907Z,3.42
2022-08-02T13:34:48.885Z,3.22
2022-08-02T13:37:17.812Z,3.50
2022-08-02T13:40:11.904Z,4.03
2022-08-02T13:42:36.533Z,4.00
2022-08-02T13:45:12.484Z,5.40
2022-08-02T13:48:03.876Z,3.45
2022-08-02T13:50:31.051Z,3.50
2022-08-02T13:52:59.488Z,3.65
2022-08-02T13:55:29.333Z,4.53
2022-08-02T13:57:57.933Z,4.18
2022-08-02T14:00:35.532Z,3.75
2022-08-02T14:03:08.275Z,3.67
2022-08-02T14:05:48.416Z,4.90
2022-08-02T14:08:18.889Z,3.45
2022-08-02T14:10:49.591Z,3.92
2022-08-02T14:13:18.845Z,4.57
2022-08-02T14:15:47.650Z,4.05
2022-08-02T14:18:16.069Z,3.65
2022-08-02T14:20:45.446Z,4.13
2022-08-02T14:23:13.894Z,4.10
2022-08-02T14:25:42.355Z,5.38
2022-08-02T14:28:12.092Z,3.72
2022-08-02T14:30:40.470Z,4.00
2022-08-02T14:33:09.335Z,3.55
2022-08-02T14:35:37.697Z,4.60
2022-08-02T14:38:06.367Z,4.18
2022-08-02T14:40:34.974Z,3.88
2022-08-02T14:43:04.279Z,3.47
2022-08-02T14:45:40.427Z,5.10
2022-08-02T14:48:12.162Z,3.80
2022-08-02T14:50:40.628Z,3.63
2022-08-02T14:53:12.418Z,4.05
2022-08-02T14:55:43.405Z,3.78
2022-08-02T14:58:12.343Z,3.40
2022-08-02T15:00:43.836Z,3.63
2022-08-02T15:03:12.899Z,5.20
2022-08-02T15:05:41.547Z,3.58
2022-08-02T15:08:09.926Z,4.80
2022-08-02T15:10:38.346Z,3.50
2022-08-02T15:13:07.553Z,3.70
2022-08-02T15:15:42.961Z,3.30
2022-08-02T15:18:15.015Z,3.35
2022-08-02T15:20:45.348Z,3.38
2022-08-02T15:23:37.335Z,4.10
2022-08-02T15:26:07.733Z,3.00
2022-08-02T15:28:36.147Z,3.20
2022-08-02T15:31:04.566Z,4.22
2022-08-02T15:33:34.351Z,3.67
2022-08-02T15:36:02.856Z,3.00
2022-08-02T15:38:31.248Z,4.00
2022-08-02T15:40:59.774Z,3.33
2022-08-02T15:43:28.120Z,3.15
2022-08-02T15:45:56.474Z,3.38
2022-08-02T15:48:24.810Z,3.20
2022-08-02T15:50:54.550Z,3.30
2022-08-02T15:53:22.906Z,5.50
2022-08-02T15:56:05.705Z,3.05
2022-08-02T15:58:44.057Z,4.03
2022-08-02T16:01:13.159Z,4.18
2022-08-02T16:03:41.596Z,3.00
2022-08-02T16:06:11.626Z,2.85
2022-08-02T16:08:40.954Z,2.70
2022-08-02T16:11:21.895Z,3.50
2022-08-02T16:13:54.865Z,3.90
2022-08-02T16:16:24.590Z,2.40
2022-08-02T16:18:53.317Z,2.67
2022-08-02T16:21:24.586Z,3.00
2022-08-02T16:24:01.477Z,2.90
2022-08-02T16:26:33.941Z,2.95
2022-08-02T16:29:03.304Z,3.17
2022-08-02T16:31:31.782Z,3.70
2022-08-02T16:34:00.551Z,3.03
2022-08-02T16:36:30.458Z,2.72
2022-08-02T16:38:59.112Z,2.80
2022-08-02T16:41:51.337Z,3.35
2022-08-02T16:44:16.047Z,3.70
2022-08-02T16:46:45.727Z,3.03
2022-08-02T16:50:05.724Z,3.42
2022-08-02T16:52:04.054Z,2.63
2022-08-02T16:54:32.503Z,2.67
2022-08-02T16:57:03.155Z,3.60
2022-08-02T16:59:42.936Z,3.13
2022-08-02T17:02:18.152Z,2.70
2022-08-02T17:04:47.975Z,3.33
2022-08-02T17:08:10.451Z,2.72
2022-08-02T17:10:09.154Z,3.28
2022-08-02T17:12:39.154Z,3.53
2022-08-02T17:17:57.152Z,4.07
2022-08-02T17:20:25.564Z,2.78
2022-08-02T17:22:55.504Z,2.83
2022-08-02T17:25:29.073Z,2.97
2022-08-02T17:28:00.544Z,4.10
2022-08-02T17:30:29.758Z,3.03
2022-08-02T17:32:59.526Z,3.42
2022-08-02T17:35:43.491Z,3.55
2022-08-02T17:38:26.001Z,3.40
2022-08-02T17:40:55.592Z,2.90
2022-08-02T17:46:12.613Z,3.20
2022-08-02T17:48:58.295Z,2.70
2022-08-02T17:51:33.116Z,3.33
2022-08-02T17:54:18.892Z,3.83
2022-08-02T17:56:48.097Z,2.95
2022-08-02T17:59:20.824Z,2.85
2022-08-02T18:01:52.918Z,3.50
2022-08-02T18:04:27.395Z,2.90
2022-08-02T18:06:58.135Z,3.10
2022-08-02T18:09:28.807Z,3.30
2022-08-02T18:11:59.033Z,2.80
2022-08-02T18:14:27.408Z,2.88
2022-08-02T18:16:55.749Z,3.40
2022-08-02T18:19:42.602Z,2.60
2022-08-02T18:22:12.116Z,3.13
2022-08-02T18:24:44.163Z,3.83
2022-08-02T18:27:14.020Z,3.33
2022-08-02T18:29:42.566Z,2.10
2022-08-02T18:32:11.013Z,2.47
2022-08-02T18:34:40.394Z,3.22
2022-08-02T18:37:12.844Z,3.50
2022-08-02T18:39:42.658Z,2.38
2022-08-02T18:42:19.932Z,2.28
2022-08-02T18:44:48.533Z,2.83
2022-08-02T18:47:17.043Z,3.25
2022-08-02T18:49:48.624Z,4.38
2022-08-02T18:52:30.957Z,2.80
2022-08-02T18:55:01.734Z,2.17
2022-08-02T18:58:18.592Z,2.58
2022-08-02T19:00:20.586Z,3.20
2022-08-02T19:02:54.386Z,2.97
2022-08-02T19:05:24.407Z,2.63
2022-08-02T19:08:12.829Z,2.88
2022-08-02T19:10:49.110Z,2.38
2022-08-02T19:13:18.358Z,2.38
2022-08-02T19:15:47.915Z,2.60
2022-08-02T19:18:16.367Z,2.08
2022-08-02T19:20:48.138Z,3.80
2022-08-02T19:23:17.401Z,2.53
2022-08-02T19:25:54.513Z,3.15
2022-08-02T19:28:26.238Z,2.92
2022-08-02T19:30:55.152Z,2.63
2022-08-02T19:33:54.325Z,2.22
2022-08-02T19:36:12.802Z,3.17
2022-08-02T19:38:49.134Z,2.47
2022-08-02T19:41:22.234Z,3.05
2022-08-02T19:44:22.838Z,2.33
2022-08-02T19:46:41.484Z,2.70
2022-08-02T19:49:17.077Z,2.53
2022-08-02T19:51:58.502Z,2.92
2022-08-02T19:54:35.883Z,2.50
2022-08-02T19:57:19.292Z,2.55
2022-08-02T19:59:48.169Z,2.83
2022-08-02T20:02:18.873Z,3.25
2022-08-02T20:04:50.186Z,2.75
2022-08-02T20:07:54.784Z,2.63
2022-08-02T20:10:11.126Z,2.70
2022-08-02T20:12:42.280Z,3.05
2022-08-02T20:15:14.943Z,3.63
2022-08-02T20:17:47.512Z,2.92
2022-08-02T20:20:16.811Z,2.33
2022-08-02T20:23:31.998Z,2.47
2022-08-02T20:25:54.106Z,2.85
2022-08-02T20:28:24.108Z,2.53
2022-08-02T20:30:53.257Z,3.05
2022-08-02T20:33:24.221Z,3.15
2022-08-02T20:35:53.208Z,2.88
2022-08-02T20:38:27.927Z,2.47
2022-08-02T20:40:58.738Z,3.83
2022-08-02T20:43:31.099Z,3.50
2022-08-02T20:46:00.371Z,3.22
2022-08-02T20:48:29.691Z,2.80
2022-08-02T20:50:58.648Z,3.40
2022-08-02T20:53:30.086Z,3.33
2022-08-02T20:55:58.854Z,2.90
2022-08-02T20:58:29.413Z,3.83
2022-08-02T21:01:00.100Z,3.60
2022-08-02T21:03:38.986Z,4.00
2022-08-02T21:06:09.350Z,4.38
2022-08-02T21:08:38.207Z,4.45
2022-08-02T21:11:09.365Z,5.07
2022-08-02T21:13:47.262Z,3.10
2022-08-02T21:16:30.841Z,3.60
2022-08-02T21:19:00.005Z,3.22
2022-08-02T21:21:29.715Z,3.53
2022-08-02T21:23:59.139Z,3.55
2022-08-02T21:26:31.184Z,2.95
2022-08-02T21:29:03.516Z,3.05
2022-08-02T21:31:35.706Z,4.47
2022-08-02T21:34:07.551Z,2.67
2022-08-02T21:36:50.687Z,4.53
2022-08-02T21:39:20.440Z,3.15
2022-08-02T21:41:49.358Z,2.58
2022-08-02T21:44:21.585Z,4.28
2022-08-02T21:46:51.217Z,4.28
2022-08-02T21:49:21.006Z,3.05
2022-08-02T21:52:09.422Z,5.03
2022-08-02T21:54:40.487Z,4.18
2022-08-02T21:59:59.106Z,2.90
2022-08-02T22:02:30.531Z,2.92
2022-08-02T22:04:59.512Z,3.92
2022-08-02T22:07:38.208Z,4.47
2022-08-02T22:10:09.038Z,2.92
2022-08-02T22:12:37.939Z,3.72
2022-08-02T22:15:10.543Z,3.17
2022-08-02T22:17:53.104Z,3.13
2022-08-02T22:20:22.419Z,3.75
2022-08-02T22:22:52.309Z,4.13
2022-08-02T22:25:35.977Z,3.72
2022-08-02T22:28:35.453Z,2.83
2022-08-02T22:30:56.980Z,3.22
2022-08-02T22:33:47.144Z,2.80
2022-08-02T22:36:29.422Z,3.20
2022-08-02T22:38:57.947Z,3.80
2022-08-02T22:42:02.079Z,3.92
2022-08-02T22:44:15.106Z,3.60
2022-08-02T22:46:49.977Z,3.60
2022-08-02T22:49:38.707Z,3.38
2022-08-02T22:52:07.935Z,3.47
2022-08-02T22:54:36.435Z,3.60
2022-08-02T22:57:06.592Z,4.93
2022-08-02T22:58:50.426Z,2.53
2022-08-02T22:58:51.223Z,2.42
2022-08-02T22:59:03.804Z,3.20
2022-08-02T22:59:40.733Z,3.28
2022-08-02T23:02:11.407Z,3.08
2022-08-02T23:04:39.914Z,5.07
2022-08-02T23:07:08.326Z,3.58
2022-08-02T23:09:36.894Z,3.53
2022-08-02T23:12:06.041Z,3.30
2022-08-02T23:14:34.375Z,4.50
2022-08-02T23:17:20.030Z,3.42
2022-08-02T23:19:52.416Z,5.57
2022-08-02T23:22:29.236Z,4.32
2022-08-02T23:25:01.501Z,3.35
2022-08-02T23:27:30.338Z,3.50
2022-08-02T23:29:59.266Z,3.25
2022-08-02T23:32:28.071Z,2.83
2022-08-02T23:34:58.615Z,4.10
2022-08-02T23:37:27.175Z,3.00
2022-08-02T23:39:55.466Z,3.35
2022-08-02T23:42:25.282Z,3.25
2022-08-02T23:44:54.208Z,3.08
2022-08-02T23:47:22.558Z,3.00
2022-08-02T23:49:51.239Z,3.92
2022-08-02T23:52:21.101Z,3.38
2022-08-02T23:54:49.456Z,4.15
2022-08-02T23:57:20.510Z,3.53
2022-08-02T23:59:51.215Z,2.60
